GLO2128 SBFL-SBCH
Flight info
| Callsign | GLO2128 |
|---|---|
| Flight time | 0h 57m |
| Altitude | 30000 |
| Route | NESMI UZ75 ESNOG DCT |
| Aircraft | B738/M-SDFGIKLORWXY/LB1 |
Departure
| Time | 2026-05-07 21:28 |
|---|---|
| Airport | Hercílio Luz International Airport (SBFL) |
Arrival
| Time | 2026-05-07 22:25 |
|---|---|
| Airport | Serafin Enoss Bertaso Airport (SBCH) |
| Time | Latitude | Longitude | Altitude | Speed | Heading |
|---|---|---|---|---|---|
| 2026-05-07 21:12 | -27.67281 | -48.54541 | 28 ft | 0 kts | 212° |
| 2026-05-07 21:21 | -27.67276 | -48.54537 | 28 ft | 4 kts | 210° |
| 2026-05-07 21:21 | -27.67252 | -48.54527 | 28 ft | 4 kts | 174° |
| 2026-05-07 21:21 | -27.67233 | -48.54538 | 28 ft | 2 kts | 122° |
| 2026-05-07 21:22 | -27.67232 | -48.54539 | 28 ft | 0 kts | 122° |
| 2026-05-07 21:23 | -27.67238 | -48.54529 | 28 ft | 5 kts | 122° |
| 2026-05-07 21:24 | -27.67272 | -48.54466 | 28 ft | 12 kts | 121° |
| 2026-05-07 21:24 | -27.67288 | -48.54378 | 28 ft | 13 kts | 51° |
| 2026-05-07 21:24 | -27.67218 | -48.54321 | 28 ft | 12 kts | 57° |
| 2026-05-07 21:24 | -27.67245 | -48.54229 | 27 ft | 15 kts | 122° |
| 2026-05-07 21:25 | -27.67307 | -48.54113 | 27 ft | 21 kts | 121° |
| 2026-05-07 21:25 | -27.67391 | -48.53953 | 30 ft | 26 kts | 120° |
| 2026-05-07 21:25 | -27.67495 | -48.53762 | 26 ft | 29 kts | 122° |
| 2026-05-07 21:25 | -27.67598 | -48.53575 | 26 ft | 27 kts | 121° |
| 2026-05-07 21:26 | -27.67693 | -48.53398 | 26 ft | 25 kts | 121° |
| 2026-05-07 21:26 | -27.67782 | -48.53233 | 24 ft | 24 kts | 121° |
| 2026-05-07 21:26 | -27.67789 | -48.53123 | 26 ft | 14 kts | 41° |
| 2026-05-07 21:26 | -27.67709 | -48.53071 | 28 ft | 13 kts | 12° |
| 2026-05-07 21:27 | -27.67633 | -48.53151 | 28 ft | 25 kts | 301° |
| 2026-05-07 21:27 | -27.67418 | -48.53548 | 22 ft | 93 kts | 301° |
| 2026-05-07 21:27 | -27.66981 | -48.54360 | 30 ft | 147 kts | 302° |
| 2026-05-07 21:27 | -27.66381 | -48.55449 | 348 ft | 167 kts | 304° |
| 2026-05-07 21:28 | -27.65771 | -48.56598 | 935 ft | 176 kts | 303° |
| 2026-05-07 21:28 | -27.65123 | -48.57838 | 1449 ft | 194 kts | 303° |
| 2026-05-07 21:28 | -27.64395 | -48.59214 | 1824 ft | 214 kts | 304° |
| 2026-05-07 21:28 | -27.63569 | -48.60756 | 2040 ft | 243 kts | 304° |
| 2026-05-07 21:29 | -27.62684 | -48.62415 | 2713 ft | 249 kts | 304° |
| 2026-05-07 21:29 | -27.61796 | -48.64089 | 3493 ft | 251 kts | 304° |
| 2026-05-07 21:29 | -27.60910 | -48.65773 | 4404 ft | 249 kts | 303° |
| 2026-05-07 21:29 | -27.60354 | -48.67630 | 5270 ft | 254 kts | 282° |
| 2026-05-07 21:30 | -27.60188 | -48.69616 | 6119 ft | 255 kts | 280° |
| 2026-05-07 21:30 | -27.60036 | -48.71615 | 6869 ft | 259 kts | 280° |
| 2026-05-07 21:30 | -27.59874 | -48.73670 | 7487 ft | 266 kts | 281° |
| 2026-05-07 21:30 | -27.59706 | -48.75763 | 8257 ft | 270 kts | 281° |
| 2026-05-07 21:31 | -27.59528 | -48.77894 | 8865 ft | 278 kts | 281° |
| 2026-05-07 21:31 | -27.59341 | -48.80080 | 9510 ft | 283 kts | 281° |
| 2026-05-07 21:31 | -27.59147 | -48.82317 | 10096 ft | 290 kts | 282° |
| 2026-05-07 21:31 | -27.58940 | -48.84629 | 10452 ft | 306 kts | 281° |
| 2026-05-07 21:32 | -27.58713 | -48.87099 | 10592 ft | 327 kts | 281° |
| 2026-05-07 21:32 | -27.58472 | -48.89724 | 10718 ft | 346 kts | 280° |
| 2026-05-07 21:32 | -27.58220 | -48.92487 | 10838 ft | 363 kts | 280° |
| 2026-05-07 21:32 | -27.57958 | -48.95369 | 11058 ft | 375 kts | 280° |
| 2026-05-07 21:33 | -27.57691 | -48.98316 | 11480 ft | 379 kts | 280° |
| 2026-05-07 21:33 | -27.57424 | -49.01278 | 12036 ft | 381 kts | 280° |
| 2026-05-07 21:33 | -27.57152 | -49.04260 | 12536 ft | 383 kts | 280° |
| 2026-05-07 21:33 | -27.56877 | -49.07251 | 13021 ft | 385 kts | 280° |
| 2026-05-07 21:34 | -27.56600 | -49.10271 | 13583 ft | 388 kts | 280° |
| 2026-05-07 21:34 | -27.56319 | -49.13301 | 14120 ft | 389 kts | 280° |
| 2026-05-07 21:34 | -27.56039 | -49.16305 | 14628 ft | 391 kts | 280° |
| 2026-05-07 21:34 | -27.55753 | -49.19366 | 15110 ft | 394 kts | 280° |
| 2026-05-07 21:35 | -27.55464 | -49.22449 | 15616 ft | 396 kts | 280° |
| 2026-05-07 21:35 | -27.55174 | -49.25541 | 16144 ft | 397 kts | 280° |
| 2026-05-07 21:35 | -27.54882 | -49.28642 | 16667 ft | 399 kts | 280° |
| 2026-05-07 21:35 | -27.54587 | -49.31756 | 17132 ft | 401 kts | 280° |
| 2026-05-07 21:36 | -27.54290 | -49.34892 | 17637 ft | 402 kts | 280° |
| 2026-05-07 21:36 | -27.53992 | -49.38036 | 18117 ft | 405 kts | 280° |
| 2026-05-07 21:36 | -27.53689 | -49.41212 | 18523 ft | 408 kts | 280° |
| 2026-05-07 21:36 | -27.53390 | -49.44346 | 18940 ft | 409 kts | 279° |
| 2026-05-07 21:37 | -27.53086 | -49.47540 | 19429 ft | 408 kts | 279° |
| 2026-05-07 21:37 | -27.52783 | -49.50713 | 19931 ft | 408 kts | 279° |
| 2026-05-07 21:37 | -27.52477 | -49.53900 | 20367 ft | 409 kts | 279° |
| 2026-05-07 21:37 | -27.52170 | -49.57090 | 20806 ft | 410 kts | 279° |
| 2026-05-07 21:38 | -27.51861 | -49.60283 | 21247 ft | 410 kts | 279° |
| 2026-05-07 21:38 | -27.51552 | -49.63481 | 21675 ft | 411 kts | 279° |
| 2026-05-07 21:38 | -27.51240 | -49.66686 | 22097 ft | 412 kts | 279° |
| 2026-05-07 21:38 | -27.50928 | -49.69900 | 22497 ft | 413 kts | 279° |
| 2026-05-07 21:39 | -27.50614 | -49.73118 | 22875 ft | 414 kts | 278° |
| 2026-05-07 21:39 | -27.50298 | -49.76352 | 23255 ft | 415 kts | 279° |
| 2026-05-07 21:39 | -27.49982 | -49.79583 | 23604 ft | 416 kts | 279° |
| 2026-05-07 21:39 | -27.49663 | -49.82828 | 23893 ft | 417 kts | 278° |
| 2026-05-07 21:40 | -27.49342 | -49.86086 | 24156 ft | 419 kts | 278° |
| 2026-05-07 21:40 | -27.49025 | -49.89305 | 24437 ft | 420 kts | 278° |
| 2026-05-07 21:40 | -27.48701 | -49.92579 | 24700 ft | 421 kts | 278° |
| 2026-05-07 21:40 | -27.48375 | -49.95865 | 24950 ft | 423 kts | 278° |
| 2026-05-07 21:41 | -27.48047 | -49.99164 | 25219 ft | 424 kts | 278° |
| 2026-05-07 21:41 | -27.47718 | -50.02472 | 25498 ft | 425 kts | 278° |
| 2026-05-07 21:41 | -27.47388 | -50.05779 | 25743 ft | 426 kts | 278° |
| 2026-05-07 21:41 | -27.47055 | -50.09101 | 25986 ft | 428 kts | 278° |
| 2026-05-07 21:42 | -27.46719 | -50.12443 | 26228 ft | 429 kts | 278° |
| 2026-05-07 21:42 | -27.46387 | -50.15751 | 26477 ft | 430 kts | 278° |
| 2026-05-07 21:42 | -27.46048 | -50.19107 | 26711 ft | 431 kts | 278° |
| 2026-05-07 21:42 | -27.45709 | -50.22466 | 26973 ft | 432 kts | 278° |
| 2026-05-07 21:43 | -27.45369 | -50.25826 | 27308 ft | 431 kts | 278° |
| 2026-05-07 21:43 | -27.45029 | -50.29176 | 27722 ft | 428 kts | 278° |
| 2026-05-07 21:43 | -27.44691 | -50.32496 | 28126 ft | 426 kts | 278° |
| 2026-05-07 21:43 | -27.44353 | -50.35807 | 28469 ft | 425 kts | 278° |
| 2026-05-07 21:44 | -27.44015 | -50.39113 | 28811 ft | 424 kts | 278° |
| 2026-05-07 21:44 | -27.43681 | -50.42368 | 29165 ft | 423 kts | 278° |
| 2026-05-07 21:44 | -27.43342 | -50.45665 | 29417 ft | 425 kts | 278° |
| 2026-05-07 21:44 | -27.43001 | -50.48976 | 29686 ft | 426 kts | 278° |
| 2026-05-07 21:45 | -27.42660 | -50.52280 | 29904 ft | 427 kts | 278° |
| 2026-05-07 21:45 | -27.42315 | -50.55612 | 29893 ft | 428 kts | 278° |
| 2026-05-07 21:45 | -27.41627 | -50.62245 | 29880 ft | 423 kts | 278° |
| 2026-05-07 21:46 | -27.40823 | -50.68751 | 29894 ft | 422 kts | 280° |
| 2026-05-07 21:46 | -27.39942 | -50.75290 | 29892 ft | 422 kts | 280° |
| 2026-05-07 21:47 | -27.39080 | -50.81849 | 29872 ft | 423 kts | 280° |
| 2026-05-07 21:47 | -27.38219 | -50.88403 | 29893 ft | 423 kts | 280° |
| 2026-05-07 21:48 | -27.37354 | -50.94913 | 29867 ft | 423 kts | 280° |
| 2026-05-07 21:48 | -27.36480 | -51.01471 | 29869 ft | 422 kts | 280° |
| 2026-05-07 21:49 | -27.36039 | -51.04766 | 29139 ft | 429 kts | 280° |
| 2026-05-07 21:49 | -27.35598 | -51.08069 | 28365 ft | 425 kts | 280° |
| 2026-05-07 21:49 | -27.35158 | -51.11358 | 27491 ft | 424 kts | 281° |
| 2026-05-07 21:49 | -27.34723 | -51.14600 | 26580 ft | 425 kts | 281° |
| 2026-05-07 21:50 | -27.34282 | -51.17887 | 25904 ft | 421 kts | 281° |
| 2026-05-07 21:50 | -27.33845 | -51.21129 | 25224 ft | 418 kts | 281° |
| 2026-05-07 21:50 | -27.33411 | -51.24353 | 24446 ft | 417 kts | 282° |
| 2026-05-07 21:50 | -27.32973 | -51.27598 | 23545 ft | 420 kts | 282° |
| 2026-05-07 21:51 | -27.32536 | -51.30844 | 22735 ft | 418 kts | 282° |
| 2026-05-07 21:51 | -27.32102 | -51.34068 | 22031 ft | 414 kts | 282° |
| 2026-05-07 21:51 | -27.31674 | -51.37250 | 21372 ft | 409 kts | 282° |
| 2026-05-07 21:51 | -27.31250 | -51.40391 | 20726 ft | 404 kts | 282° |
| 2026-05-07 21:52 | -27.30835 | -51.43460 | 20098 ft | 400 kts | 282° |
| 2026-05-07 21:52 | -27.30417 | -51.46542 | 19483 ft | 396 kts | 282° |
| 2026-05-07 21:52 | -27.30000 | -51.49604 | 18864 ft | 393 kts | 282° |
| 2026-05-07 21:52 | -27.29587 | -51.52637 | 18245 ft | 390 kts | 283° |
| 2026-05-07 21:53 | -27.29173 | -51.55650 | 17561 ft | 389 kts | 283° |
| 2026-05-07 21:53 | -27.28763 | -51.58639 | 16922 ft | 386 kts | 283° |
| 2026-05-07 21:53 | -27.28358 | -51.61612 | 16318 ft | 382 kts | 283° |
| 2026-05-07 21:53 | -27.27962 | -51.64515 | 15714 ft | 379 kts | 283° |
| 2026-05-07 21:54 | -27.27562 | -51.67429 | 15121 ft | 375 kts | 283° |
| 2026-05-07 21:54 | -27.27166 | -51.70315 | 14550 ft | 372 kts | 283° |
| 2026-05-07 21:54 | -27.26770 | -51.73187 | 13934 ft | 371 kts | 284° |
| 2026-05-07 21:54 | -27.26374 | -51.76049 | 13301 ft | 370 kts | 284° |
| 2026-05-07 21:55 | -27.25981 | -51.78894 | 12688 ft | 367 kts | 283° |
| 2026-05-07 21:55 | -27.25590 | -51.81720 | 12099 ft | 364 kts | 283° |
| 2026-05-07 21:55 | -27.25201 | -51.84521 | 11506 ft | 362 kts | 283° |
| 2026-05-07 21:55 | -27.24820 | -51.87267 | 11065 ft | 356 kts | 283° |
| 2026-05-07 21:56 | -27.24448 | -51.89960 | 10899 ft | 342 kts | 282° |
| 2026-05-07 21:56 | -27.24089 | -51.92547 | 10742 ft | 329 kts | 283° |
| 2026-05-07 21:56 | -27.23741 | -51.95053 | 10590 ft | 317 kts | 283° |
| 2026-05-07 21:56 | -27.23405 | -51.97457 | 10470 ft | 305 kts | 283° |
| 2026-05-07 21:57 | -27.23082 | -51.99767 | 10349 ft | 294 kts | 283° |
| 2026-05-07 21:57 | -27.22770 | -52.01998 | 10229 ft | 284 kts | 283° |
| 2026-05-07 21:57 | -27.22466 | -52.04163 | 10113 ft | 276 kts | 283° |
| 2026-05-07 21:57 | -27.22154 | -52.06264 | 9958 ft | 269 kts | 283° |
| 2026-05-07 21:58 | -27.21847 | -52.08282 | 9843 ft | 262 kts | 284° |
| 2026-05-07 21:58 | -27.21538 | -52.10302 | 9521 ft | 262 kts | 284° |
| 2026-05-07 21:58 | -27.21229 | -52.12321 | 9237 ft | 260 kts | 284° |
| 2026-05-07 21:58 | -27.20925 | -52.14318 | 8936 ft | 258 kts | 284° |
| 2026-05-07 21:59 | -27.20629 | -52.16268 | 8686 ft | 254 kts | 284° |
| 2026-05-07 21:59 | -27.20328 | -52.18226 | 8418 ft | 254 kts | 285° |
| 2026-05-07 21:59 | -27.20031 | -52.20174 | 8133 ft | 253 kts | 285° |
| 2026-05-07 21:59 | -27.19733 | -52.22126 | 7850 ft | 252 kts | 285° |
| 2026-05-07 22:00 | -27.19438 | -52.24065 | 7595 ft | 252 kts | 285° |
| 2026-05-07 22:00 | -27.19143 | -52.26008 | 7305 ft | 251 kts | 285° |
| 2026-05-07 22:00 | -27.18849 | -52.27934 | 7064 ft | 249 kts | 289° |
| 2026-05-07 22:00 | -27.18553 | -52.29848 | 6779 ft | 248 kts | 287° |
| 2026-05-07 22:01 | -27.18261 | -52.31755 | 6503 ft | 247 kts | 287° |
| 2026-05-07 22:01 | -27.17972 | -52.33645 | 6238 ft | 240 kts | 287° |
| 2026-05-07 22:01 | -27.17700 | -52.35436 | 6091 ft | 227 kts | 287° |
| 2026-05-07 22:01 | -27.17459 | -52.37127 | 6066 ft | 216 kts | 288° |
| 2026-05-07 22:02 | -27.17228 | -52.38769 | 5932 ft | 209 kts | 289° |
| 2026-05-07 22:02 | -27.17008 | -52.40333 | 5868 ft | 204 kts | 289° |
| 2026-05-07 22:02 | -27.16781 | -52.41907 | 5777 ft | 205 kts | 290° |
| 2026-05-07 22:02 | -27.16547 | -52.43524 | 5675 ft | 210 kts | 289° |
| 2026-05-07 22:03 | -27.16305 | -52.45161 | 5417 ft | 210 kts | 289° |
| 2026-05-07 22:03 | -27.16095 | -52.46698 | 5278 ft | 200 kts | 289° |
| 2026-05-07 22:03 | -27.15891 | -52.48192 | 5175 ft | 184 kts | 291° |
| 2026-05-07 22:03 | -27.15698 | -52.49587 | 4944 ft | 176 kts | 290° |
| 2026-05-07 22:04 | -27.15508 | -52.50927 | 4774 ft | 172 kts | 290° |
| 2026-05-07 22:04 | -27.15321 | -52.52246 | 4531 ft | 170 kts | 289° |
| 2026-05-07 22:04 | -27.15139 | -52.53546 | 4315 ft | 167 kts | 291° |
| 2026-05-07 22:04 | -27.14975 | -52.54817 | 4027 ft | 165 kts | 288° |
| 2026-05-07 22:05 | -27.14801 | -52.56060 | 3895 ft | 168 kts | 290° |
| 2026-05-07 22:05 | -27.14612 | -52.57244 | 4291 ft | 148 kts | 292° |
| 2026-05-07 22:05 | -27.14410 | -52.58510 | 4751 ft | 173 kts | 293° |
| 2026-05-07 22:05 | -27.14178 | -52.59962 | 4929 ft | 205 kts | 290° |
| 2026-05-07 22:06 | -27.14265 | -52.61700 | 4981 ft | 249 kts | 259° |
| 2026-05-07 22:06 | -27.15254 | -52.63475 | 4991 ft | 287 kts | 232° |
| 2026-05-07 22:06 | -27.16974 | -52.64736 | 4996 ft | 309 kts | 205° |
| 2026-05-07 22:06 | -27.19123 | -52.65103 | 5000 ft | 317 kts | 176° |
| 2026-05-07 22:07 | -27.21224 | -52.64388 | 5006 ft | 318 kts | 146° |
| 2026-05-07 22:07 | -27.22746 | -52.62674 | 5002 ft | 308 kts | 112° |
| 2026-05-07 22:07 | -27.23381 | -52.60479 | 5022 ft | 296 kts | 94° |
| 2026-05-07 22:07 | -27.23757 | -52.58234 | 4937 ft | 284 kts | 90° |
| 2026-05-07 22:08 | -27.24094 | -52.56116 | 4958 ft | 269 kts | 92° |
| 2026-05-07 22:08 | -27.24453 | -52.54127 | 5023 ft | 254 kts | 90° |
| 2026-05-07 22:08 | -27.24747 | -52.52144 | 4981 ft | 258 kts | 90° |
| 2026-05-07 22:08 | -27.25047 | -52.50158 | 4979 ft | 257 kts | 91° |
| 2026-05-07 22:09 | -27.25069 | -52.48214 | 4953 ft | 240 kts | 64° |
| 2026-05-07 22:09 | -27.24284 | -52.46685 | 4980 ft | 220 kts | 36° |
| 2026-05-07 22:09 | -27.23062 | -52.45744 | 4981 ft | 210 kts | 16° |
| 2026-05-07 22:09 | -27.21668 | -52.45340 | 4959 ft | 205 kts | 359° |
| 2026-05-07 22:10 | -27.20280 | -52.45486 | 4973 ft | 198 kts | 348° |
| 2026-05-07 22:10 | -27.18928 | -52.45780 | 4989 ft | 199 kts | 347° |
| 2026-05-07 22:10 | -27.17618 | -52.46204 | 4973 ft | 194 kts | 330° |
| 2026-05-07 22:10 | -27.16602 | -52.47187 | 5010 ft | 202 kts | 315° |
| 2026-05-07 22:11 | -27.15878 | -52.48576 | 4926 ft | 209 kts | 296° |
| 2026-05-07 22:11 | -27.15608 | -52.50172 | 4878 ft | 200 kts | 288° |
| 2026-05-07 22:11 | -27.15397 | -52.51704 | 4621 ft | 196 kts | 288° |
| 2026-05-07 22:11 | -27.15193 | -52.53189 | 4371 ft | 186 kts | 289° |
| 2026-05-07 22:12 | -27.15004 | -52.54558 | 4119 ft | 171 kts | 289° |
| 2026-05-07 22:12 | -27.14839 | -52.55776 | 3854 ft | 142 kts | 291° |
| 2026-05-07 22:12 | -27.14673 | -52.56880 | 3692 ft | 147 kts | 290° |
| 2026-05-07 22:12 | -27.14511 | -52.57998 | 3496 ft | 145 kts | 288° |
| 2026-05-07 22:13 | -27.14406 | -52.58740 | 3353 ft | 144 kts | 290° |
| 2026-05-07 22:13 | -27.14204 | -52.60188 | 3074 ft | 139 kts | 292° |
| 2026-05-07 22:13 | -27.14094 | -52.60911 | 2986 ft | 144 kts | 290° |
| 2026-05-07 22:13 | -27.13925 | -52.62010 | 2789 ft | 145 kts | 287° |
| 2026-05-07 22:14 | -27.13774 | -52.63146 | 2594 ft | 147 kts | 286° |
| 2026-05-07 22:14 | -27.13621 | -52.64265 | 2346 ft | 143 kts | 288° |
| 2026-05-07 22:14 | -27.13461 | -52.65391 | 2231 ft | 156 kts | 286° |
| 2026-05-07 22:14 | -27.13283 | -52.66620 | 2863 ft | 173 kts | 286° |
| 2026-05-07 22:15 | -27.12992 | -52.68507 | 3903 ft | 192 kts | 288° |
| 2026-05-07 22:15 | -27.12894 | -52.69509 | 4477 ft | 195 kts | 281° |
| 2026-05-07 22:15 | -27.13332 | -52.71035 | 4785 ft | 224 kts | 241° |
| 2026-05-07 22:15 | -27.14551 | -52.72324 | 4961 ft | 269 kts | 218° |
| 2026-05-07 22:16 | -27.16455 | -52.73057 | 5015 ft | 309 kts | 188° |
| 2026-05-07 22:16 | -27.18637 | -52.72816 | 4992 ft | 320 kts | 159° |
| 2026-05-07 22:16 | -27.20449 | -52.71501 | 5000 ft | 313 kts | 126° |
| 2026-05-07 22:16 | -27.21413 | -52.69455 | 5009 ft | 282 kts | 93° |
| 2026-05-07 22:17 | -27.21790 | -52.67333 | 5010 ft | 277 kts | 93° |
| 2026-05-07 22:17 | -27.22187 | -52.65162 | 5037 ft | 289 kts | 94° |
| 2026-05-07 22:17 | -27.22593 | -52.62927 | 5007 ft | 295 kts | 94° |
| 2026-05-07 22:17 | -27.23004 | -52.60672 | 4992 ft | 294 kts | 93° |
| 2026-05-07 22:18 | -27.23414 | -52.58439 | 4930 ft | 287 kts | 92° |
| 2026-05-07 22:18 | -27.24204 | -52.54057 | 5001 ft | 289 kts | 93° |
| 2026-05-07 22:18 | -27.24606 | -52.51830 | 4976 ft | 291 kts | 94° |
| 2026-05-07 22:19 | -27.24975 | -52.49594 | 4959 ft | 290 kts | 86° |
| 2026-05-07 22:19 | -27.24618 | -52.47477 | 4973 ft | 268 kts | 52° |
| 2026-05-07 22:19 | -27.23371 | -52.46085 | 4967 ft | 249 kts | 20° |
| 2026-05-07 22:19 | -27.21742 | -52.45510 | 4954 ft | 243 kts | 5° |
| 2026-05-07 22:20 | -27.20102 | -52.45471 | 4956 ft | 230 kts | 349° |
| 2026-05-07 22:20 | -27.18582 | -52.45787 | 4940 ft | 214 kts | 342° |
| 2026-05-07 22:20 | -27.17383 | -52.46523 | 4981 ft | 190 kts | 322° |
| 2026-05-07 22:20 | -27.16511 | -52.47555 | 5004 ft | 177 kts | 313° |
| 2026-05-07 22:21 | -27.15911 | -52.48715 | 4887 ft | 167 kts | 301° |
| 2026-05-07 22:21 | -27.15646 | -52.49961 | 4874 ft | 164 kts | 291° |
| 2026-05-07 22:21 | -27.15448 | -52.51275 | 4682 ft | 174 kts | 290° |
| 2026-05-07 22:21 | -27.15266 | -52.52587 | 4501 ft | 170 kts | 290° |
| 2026-05-07 22:22 | -27.15084 | -52.53882 | 4252 ft | 164 kts | 290° |
| 2026-05-07 22:22 | -27.14964 | -52.55096 | 3966 ft | 143 kts | 289° |
| 2026-05-07 22:22 | -27.14791 | -52.56126 | 3886 ft | 141 kts | 295° |
| 2026-05-07 22:22 | -27.14590 | -52.57237 | 3629 ft | 142 kts | 291° |
| 2026-05-07 22:23 | -27.14436 | -52.58344 | 3432 ft | 146 kts | 289° |
| 2026-05-07 22:23 | -27.14285 | -52.59456 | 3223 ft | 142 kts | 291° |
| 2026-05-07 22:23 | -27.14138 | -52.60537 | 2967 ft | 139 kts | 291° |
| 2026-05-07 22:23 | -27.13980 | -52.61617 | 2799 ft | 144 kts | 287° |
| 2026-05-07 22:24 | -27.13824 | -52.62751 | 2577 ft | 149 kts | 284° |
| 2026-05-07 22:24 | -27.13666 | -52.63900 | 2349 ft | 148 kts | 284° |
| 2026-05-07 22:24 | -27.13506 | -52.65033 | 2136 ft | 148 kts | 284° |
| 2026-05-07 22:24 | -27.13373 | -52.65966 | 2128 ft | 72 kts | 278° |
| 2026-05-07 22:25 | -27.13337 | -52.66218 | 2127 ft | 19 kts | 279° |
| 2026-05-07 22:25 | -27.13317 | -52.66361 | 2128 ft | 18 kts | 279° |
| 2026-05-07 22:25 | -27.13297 | -52.66500 | 2128 ft | 18 kts | 279° |
| 2026-05-07 22:25 | -27.13278 | -52.66634 | 2129 ft | 17 kts | 279° |
| 2026-05-07 22:26 | -27.13258 | -52.66764 | 2125 ft | 17 kts | 279° |
| 2026-05-07 22:26 | -27.13222 | -52.66858 | 2127 ft | 8 kts | 330° |
| 2026-05-07 22:26 | -27.13237 | -52.66881 | 2130 ft | 7 kts | 144° |
| 2026-05-07 22:26 | -27.13254 | -52.66805 | 2127 ft | 14 kts | 98° |
| 2026-05-07 22:27 | -27.13274 | -52.66667 | 2125 ft | 21 kts | 98° |
| 2026-05-07 22:27 | -27.13300 | -52.66482 | 2128 ft | 27 kts | 98° |
| 2026-05-07 22:27 | -27.13330 | -52.66267 | 2127 ft | 28 kts | 98° |
| 2026-05-07 22:27 | -27.13343 | -52.66124 | 2128 ft | 10 kts | 67° |
| 2026-05-07 22:28 | -27.13287 | -52.66101 | 2127 ft | 3 kts | 7° |
| 2026-05-07 22:28 | -27.13264 | -52.66097 | 2126 ft | 3 kts | 15° |
| 2026-05-07 22:28 | -27.13248 | -52.66078 | 2130 ft | 3 kts | 58° |
| 2026-05-07 22:28 | -27.13242 | -52.66067 | 2128 ft | 1 kts | 56° |
| 2026-05-07 22:29 | -27.13238 | -52.66061 | 2132 ft | 1 kts | 57° |
| 2026-05-07 22:29 | -27.13238 | -52.66060 | 2132 ft | 1 kts | 56° |
| 2026-05-07 22:29 | -27.13236 | -52.66058 | 2132 ft | 0 kts | 56° |